sensor_id;sensor_type;location;lat;lon;timestamp;P1;durP1;ratioP1;P2;durP2;ratioP2
15216;SDS011;7711;46.634;14.318;2023-09-19T00:01:34;18.80;;;12.60;;
15216;SDS011;7711;46.634;14.318;2023-09-19T00:04:02;17.27;;;12.25;;
15216;SDS011;7711;46.634;14.318;2023-09-19T00:06:34;20.23;;;12.80;;
15216;SDS011;7711;46.634;14.318;2023-09-19T00:09:02;19.67;;;12.02;;
15216;SDS011;7711;46.634;14.318;2023-09-19T00:11:29;19.80;;;11.10;;
15216;SDS011;7711;46.634;14.318;2023-09-19T00:13:56;19.42;;;11.93;;
15216;SDS011;7711;46.634;14.318;2023-09-19T00:16:24;19.48;;;11.75;;
15216;SDS011;7711;46.634;14.318;2023-09-19T00:18:52;18.45;;;10.68;;
15216;SDS011;7711;46.634;14.318;2023-09-19T00:21:20;21.33;;;11.10;;
15216;SDS011;7711;46.634;14.318;2023-09-19T00:23:47;21.63;;;11.18;;
15216;SDS011;7711;46.634;14.318;2023-09-19T00:26:16;19.45;;;11.65;;
15216;SDS011;7711;46.634;14.318;2023-09-19T00:28:44;18.30;;;11.98;;
15216;SDS011;7711;46.634;14.318;2023-09-19T00:31:10;16.83;;;12.05;;
15216;SDS011;7711;46.634;14.318;2023-09-19T00:33:38;17.27;;;11.43;;
15216;SDS011;7711;46.634;14.318;2023-09-19T00:36:05;17.38;;;11.18;;
15216;SDS011;7711;46.634;14.318;2023-09-19T00:38:33;24.05;;;11.60;;
15216;SDS011;7711;46.634;14.318;2023-09-19T00:41:00;20.30;;;12.13;;
15216;SDS011;7711;46.634;14.318;2023-09-19T00:43:28;17.48;;;11.73;;
15216;SDS011;7711;46.634;14.318;2023-09-19T00:45:59;19.73;;;11.68;;
15216;SDS011;7711;46.634;14.318;2023-09-19T00:48:28;26.10;;;13.23;;
15216;SDS011;7711;46.634;14.318;2023-09-19T00:50:56;18.20;;;10.73;;
15216;SDS011;7711;46.634;14.318;2023-09-19T00:53:25;20.42;;;11.57;;
15216;SDS011;7711;46.634;14.318;2023-09-19T00:55:53;19.45;;;10.73;;
15216;SDS011;7711;46.634;14.318;2023-09-19T00:58:21;14.77;;;8.30;;
15216;SDS011;7711;46.634;14.318;2023-09-19T01:00:48;12.40;;;7.05;;
15216;SDS011;7711;46.634;14.318;2023-09-19T01:03:16;10.70;;;5.57;;
15216;SDS011;7711;46.634;14.318;2023-09-19T01:05:44;14.60;;;6.45;;
15216;SDS011;7711;46.634;14.318;2023-09-19T01:08:11;7.15;;;4.97;;
15216;SDS011;7711;46.634;14.318;2023-09-19T01:10:38;7.30;;;4.65;;
15216;SDS011;7711;46.634;14.318;2023-09-19T01:13:25;9.73;;;4.35;;
15216;SDS011;7711;46.634;14.318;2023-09-19T01:16:02;7.13;;;4.05;;
15216;SDS011;7711;46.634;14.318;2023-09-19T01:18:40;4.97;;;3.70;;
15216;SDS011;7711;46.634;14.318;2023-09-19T01:21:15;3.92;;;3.30;;
15216;SDS011;7711;46.634;14.318;2023-09-19T01:24:04;3.97;;;3.40;;
15216;SDS011;7711;46.634;14.318;2023-09-19T01:27:06;3.53;;;3.00;;
15216;SDS011;7711;46.634;14.318;2023-09-19T01:29:52;3.78;;;2.95;;
15216;SDS011;7711;46.634;14.318;2023-09-19T01:32:21;5.70;;;3.17;;
15216;SDS011;7711;46.634;14.318;2023-09-19T01:34:50;4.30;;;3.55;;
15216;SDS011;7711;46.634;14.318;2023-09-19T01:37:21;6.38;;;3.95;;
15216;SDS011;7711;46.634;14.318;2023-09-19T01:39:51;4.00;;;2.92;;
15216;SDS011;7711;46.634;14.318;2023-09-19T01:42:24;7.32;;;3.28;;
15216;SDS011;7711;46.634;14.318;2023-09-19T01:44:59;4.85;;;2.88;;
15216;SDS011;7711;46.634;14.318;2023-09-19T01:47:35;4.15;;;2.58;;
15216;SDS011;7711;46.634;14.318;2023-09-19T01:50:11;6.03;;;3.10;;
15216;SDS011;7711;46.634;14.318;2023-09-19T01:52:46;5.00;;;2.70;;
15216;SDS011;7711;46.634;14.318;2023-09-19T01:55:15;5.43;;;2.50;;
15216;SDS011;7711;46.634;14.318;2023-09-19T01:57:48;4.60;;;2.33;;
15216;SDS011;7711;46.634;14.318;2023-09-19T02:00:20;2.80;;;2.20;;
15216;SDS011;7711;46.634;14.318;2023-09-19T02:02:50;5.30;;;2.28;;
15216;SDS011;7711;46.634;14.318;2023-09-19T02:05:22;4.15;;;2.40;;
15216;SDS011;7711;46.634;14.318;2023-09-19T02:07:50;2.72;;;2.20;;
15216;SDS011;7711;46.634;14.318;2023-09-19T02:10:18;2.90;;;2.20;;
15216;SDS011;7711;46.634;14.318;2023-09-19T02:12:44;2.42;;;2.10;;
15216;SDS011;7711;46.634;14.318;2023-09-19T02:15:11;2.17;;;1.90;;
15216;SDS011;7711;46.634;14.318;2023-09-19T02:17:40;3.08;;;2.00;;
15216;SDS011;7711;46.634;14.318;2023-09-19T02:20:09;3.83;;;2.30;;
15216;SDS011;7711;46.634;14.318;2023-09-19T02:22:39;5.13;;;2.20;;
15216;SDS011;7711;46.634;14.318;2023-09-19T02:25:07;3.90;;;2.25;;
15216;SDS011;7711;46.634;14.318;2023-09-19T02:27:34;2.55;;;2.20;;
15216;SDS011;7711;46.634;14.318;2023-09-19T02:30:02;3.08;;;2.20;;
15216;SDS011;7711;46.634;14.318;2023-09-19T02:32:31;5.07;;;2.35;;
15216;SDS011;7711;46.634;14.318;2023-09-19T02:35:01;4.72;;;2.50;;
15216;SDS011;7711;46.634;14.318;2023-09-19T02:37:31;5.03;;;2.20;;
15216;SDS011;7711;46.634;14.318;2023-09-19T02:40:00;2.38;;;2.00;;
15216;SDS011;7711;46.634;14.318;2023-09-19T02:42:43;2.38;;;2.17;;
15216;SDS011;7711;46.634;14.318;2023-09-19T02:45:14;2.45;;;2.25;;
15216;SDS011;7711;46.634;14.318;2023-09-19T02:47:43;2.70;;;2.00;;
15216;SDS011;7711;46.634;14.318;2023-09-19T02:50:11;3.03;;;2.50;;
15216;SDS011;7711;46.634;14.318;2023-09-19T02:52:40;3.80;;;2.35;;
15216;SDS011;7711;46.634;14.318;2023-09-19T02:55:09;3.03;;;2.30;;
15216;SDS011;7711;46.634;14.318;2023-09-19T02:57:36;3.60;;;2.05;;
15216;SDS011;7711;46.634;14.318;2023-09-19T03:00:06;4.18;;;2.40;;
15216;SDS011;7711;46.634;14.318;2023-09-19T03:02:35;2.95;;;2.38;;
15216;SDS011;7711;46.634;14.318;2023-09-19T03:05:03;2.50;;;2.10;;
15216;SDS011;7711;46.634;14.318;2023-09-19T03:07:31;2.30;;;2.10;;
15216;SDS011;7711;46.634;14.318;2023-09-19T03:09:59;2.55;;;2.30;;
15216;SDS011;7711;46.634;14.318;2023-09-19T03:12:26;4.07;;;2.38;;
15216;SDS011;7711;46.634;14.318;2023-09-19T03:14:53;6.22;;;2.50;;
15216;SDS011;7711;46.634;14.318;2023-09-19T03:17:20;3.72;;;2.67;;
15216;SDS011;7711;46.634;14.318;2023-09-19T03:19:47;3.83;;;2.60;;
15216;SDS011;7711;46.634;14.318;2023-09-19T03:22:15;3.70;;;2.25;;
15216;SDS011;7711;46.634;14.318;2023-09-19T03:24:42;3.63;;;2.20;;
15216;SDS011;7711;46.634;14.318;2023-09-19T03:27:11;3.92;;;2.17;;
15216;SDS011;7711;46.634;14.318;2023-09-19T03:29:39;8.73;;;2.65;;
15216;SDS011;7711;46.634;14.318;2023-09-19T03:32:06;2.85;;;2.55;;
15216;SDS011;7711;46.634;14.318;2023-09-19T03:34:35;2.75;;;2.20;;
15216;SDS011;7711;46.634;14.318;2023-09-19T03:37:03;2.40;;;2.10;;
15216;SDS011;7711;46.634;14.318;2023-09-19T03:39:31;3.10;;;2.08;;
15216;SDS011;7711;46.634;14.318;2023-09-19T03:41:58;3.00;;;2.50;;
15216;SDS011;7711;46.634;14.318;2023-09-19T03:44:26;3.63;;;2.42;;
15216;SDS011;7711;46.634;14.318;2023-09-19T03:46:53;3.33;;;2.15;;
15216;SDS011;7711;46.634;14.318;2023-09-19T03:49:22;2.60;;;2.40;;
15216;SDS011;7711;46.634;14.318;2023-09-19T03:51:48;2.35;;;2.15;;
15216;SDS011;7711;46.634;14.318;2023-09-19T03:54:15;3.72;;;2.33;;
15216;SDS011;7711;46.634;14.318;2023-09-19T03:56:44;4.20;;;2.42;;
15216;SDS011;7711;46.634;14.318;2023-09-19T03:59:11;3.95;;;2.83;;
15216;SDS011;7711;46.634;14.318;2023-09-19T04:01:40;2.95;;;2.65;;
15216;SDS011;7711;46.634;14.318;2023-09-19T04:04:07;5.28;;;2.50;;
15216;SDS011;7711;46.634;14.318;2023-09-19T04:06:34;3.60;;;2.42;;
15216;SDS011;7711;46.634;14.318;2023-09-19T04:09:01;4.50;;;2.72;;
15216;SDS011;7711;46.634;14.318;2023-09-19T04:11:29;2.80;;;2.58;;
15216;SDS011;7711;46.634;14.318;2023-09-19T04:13:56;5.70;;;3.30;;
15216;SDS011;7711;46.634;14.318;2023-09-19T04:16:23;5.60;;;3.33;;
15216;SDS011;7711;46.634;14.318;2023-09-19T04:18:51;5.35;;;3.00;;
15216;SDS011;7711;46.634;14.318;2023-09-19T04:21:18;4.28;;;3.50;;
15216;SDS011;7711;46.634;14.318;2023-09-19T04:23:45;5.22;;;3.17;;
15216;SDS011;7711;46.634;14.318;2023-09-19T04:26:12;5.43;;;3.63;;
15216;SDS011;7711;46.634;14.318;2023-09-19T04:28:41;4.90;;;3.42;;
15216;SDS011;7711;46.634;14.318;2023-09-19T04:31:09;5.03;;;3.47;;
15216;SDS011;7711;46.634;14.318;2023-09-19T04:33:36;4.55;;;3.25;;
15216;SDS011;7711;46.634;14.318;2023-09-19T04:36:05;7.28;;;3.83;;
15216;SDS011;7711;46.634;14.318;2023-09-19T04:38:32;4.75;;;3.85;;
15216;SDS011;7711;46.634;14.318;2023-09-19T04:40:59;8.57;;;3.85;;
15216;SDS011;7711;46.634;14.318;2023-09-19T04:43:26;7.18;;;3.72;;
15216;SDS011;7711;46.634;14.318;2023-09-19T04:45:54;7.45;;;3.92;;
15216;SDS011;7711;46.634;14.318;2023-09-19T04:48:21;8.95;;;3.65;;
15216;SDS011;7711;46.634;14.318;2023-09-19T04:50:50;4.90;;;3.35;;
15216;SDS011;7711;46.634;14.318;2023-09-19T04:53:18;3.42;;;3.13;;
15216;SDS011;7711;46.634;14.318;2023-09-19T04:55:49;4.63;;;3.13;;
15216;SDS011;7711;46.634;14.318;2023-09-19T04:58:17;3.80;;;3.35;;
15216;SDS011;7711;46.634;14.318;2023-09-19T05:00:44;8.38;;;3.13;;
15216;SDS011;7711;46.634;14.318;2023-09-19T05:03:11;4.65;;;3.17;;
15216;SDS011;7711;46.634;14.318;2023-09-19T05:05:38;6.32;;;3.50;;
15216;SDS011;7711;46.634;14.318;2023-09-19T05:08:06;8.82;;;3.35;;
15216;SDS011;7711;46.634;14.318;2023-09-19T05:10:35;5.65;;;3.30;;
15216;SDS011;7711;46.634;14.318;2023-09-19T05:13:03;6.47;;;3.95;;
15216;SDS011;7711;46.634;14.318;2023-09-19T05:15:30;4.18;;;3.60;;
15216;SDS011;7711;46.634;14.318;2023-09-19T05:17:57;5.38;;;3.50;;
15216;SDS011;7711;46.634;14.318;2023-09-19T05:20:24;4.95;;;3.10;;
15216;SDS011;7711;46.634;14.318;2023-09-19T05:22:57;5.07;;;3.33;;
15216;SDS011;7711;46.634;14.318;2023-09-19T05:25:27;9.05;;;3.45;;
15216;SDS011;7711;46.634;14.318;2023-09-19T05:27:57;5.95;;;3.15;;
15216;SDS011;7711;46.634;14.318;2023-09-19T05:30:25;6.07;;;3.05;;
15216;SDS011;7711;46.634;14.318;2023-09-19T05:32:54;6.28;;;2.85;;
15216;SDS011;7711;46.634;14.318;2023-09-19T05:35:22;5.95;;;3.42;;
15216;SDS011;7711;46.634;14.318;2023-09-19T05:37:50;6.60;;;3.17;;
15216;SDS011;7711;46.634;14.318;2023-09-19T05:40:18;6.30;;;3.50;;
15216;SDS011;7711;46.634;14.318;2023-09-19T05:42:45;4.28;;;3.42;;
15216;SDS011;7711;46.634;14.318;2023-09-19T05:45:13;6.68;;;3.58;;
15216;SDS011;7711;46.634;14.318;2023-09-19T05:47:44;7.30;;;3.60;;
15216;SDS011;7711;46.634;14.318;2023-09-19T05:50:11;5.88;;;3.88;;
15216;SDS011;7711;46.634;14.318;2023-09-19T05:52:40;7.47;;;4.30;;
15216;SDS011;7711;46.634;14.318;2023-09-19T05:55:09;6.65;;;4.03;;
15216;SDS011;7711;46.634;14.318;2023-09-19T05:57:36;5.30;;;4.05;;
15216;SDS011;7711;46.634;14.318;2023-09-19T06:00:05;6.78;;;4.30;;
15216;SDS011;7711;46.634;14.318;2023-09-19T06:02:36;7.13;;;4.95;;
15216;SDS011;7711;46.634;14.318;2023-09-19T06:05:03;5.65;;;5.00;;
15216;SDS011;7711;46.634;14.318;2023-09-19T06:07:35;7.65;;;4.70;;
15216;SDS011;7711;46.634;14.318;2023-09-19T06:10:02;6.13;;;4.30;;
15216;SDS011;7711;46.634;14.318;2023-09-19T06:12:32;6.82;;;4.68;;
15216;SDS011;7711;46.634;14.318;2023-09-19T06:15:02;8.55;;;4.35;;
15216;SDS011;7711;46.634;14.318;2023-09-19T06:17:30;5.68;;;4.57;;
15216;SDS011;7711;46.634;14.318;2023-09-19T06:19:59;6.30;;;5.32;;
15216;SDS011;7711;46.634;14.318;2023-09-19T06:22:25;5.85;;;4.80;;
15216;SDS011;7711;46.634;14.318;2023-09-19T06:24:52;6.20;;;4.47;;
15216;SDS011;7711;46.634;14.318;2023-09-19T06:27:20;7.78;;;3.90;;
15216;SDS011;7711;46.634;14.318;2023-09-19T06:29:47;10.57;;;8.43;;
15216;SDS011;7711;46.634;14.318;2023-09-19T06:32:14;7.50;;;5.43;;
15216;SDS011;7711;46.634;14.318;2023-09-19T06:34:41;8.32;;;5.20;;
15216;SDS011;7711;46.634;14.318;2023-09-19T06:37:10;9.02;;;4.95;;
15216;SDS011;7711;46.634;14.318;2023-09-19T06:39:37;5.22;;;4.57;;
15216;SDS011;7711;46.634;14.318;2023-09-19T06:42:04;7.30;;;5.50;;
15216;SDS011;7711;46.634;14.318;2023-09-19T06:44:31;7.00;;;4.15;;
15216;SDS011;7711;46.634;14.318;2023-09-19T06:46:58;8.10;;;4.97;;
15216;SDS011;7711;46.634;14.318;2023-09-19T06:49:25;6.15;;;5.32;;
15216;SDS011;7711;46.634;14.318;2023-09-19T06:51:53;6.68;;;5.10;;
15216;SDS011;7711;46.634;14.318;2023-09-19T06:54:23;6.95;;;4.85;;
15216;SDS011;7711;46.634;14.318;2023-09-19T06:56:51;5.78;;;4.28;;
15216;SDS011;7711;46.634;14.318;2023-09-19T06:59:20;8.02;;;4.70;;
15216;SDS011;7711;46.634;14.318;2023-09-19T07:01:47;5.82;;;4.43;;
15216;SDS011;7711;46.634;14.318;2023-09-19T07:04:14;6.03;;;4.20;;
15216;SDS011;7711;46.634;14.318;2023-09-19T07:06:42;5.07;;;3.72;;
15216;SDS011;7711;46.634;14.318;2023-09-19T07:09:11;5.57;;;3.88;;
15216;SDS011;7711;46.634;14.318;2023-09-19T07:11:39;5.53;;;4.13;;
15216;SDS011;7711;46.634;14.318;2023-09-19T07:14:06;3.92;;;3.13;;
15216;SDS011;7711;46.634;14.318;2023-09-19T07:16:33;3.20;;;2.90;;
15216;SDS011;7711;46.634;14.318;2023-09-19T07:19:01;3.92;;;2.75;;
15216;SDS011;7711;46.634;14.318;2023-09-19T07:21:28;4.47;;;3.15;;
15216;SDS011;7711;46.634;14.318;2023-09-19T07:23:55;3.35;;;3.05;;
15216;SDS011;7711;46.634;14.318;2023-09-19T07:26:22;5.32;;;3.28;;
15216;SDS011;7711;46.634;14.318;2023-09-19T07:28:50;3.05;;;2.63;;
15216;SDS011;7711;46.634;14.318;2023-09-19T07:31:18;4.03;;;2.70;;
15216;SDS011;7711;46.634;14.318;2023-09-19T07:33:45;4.50;;;2.85;;
15216;SDS011;7711;46.634;14.318;2023-09-19T07:36:12;3.05;;;2.47;;
15216;SDS011;7711;46.634;14.318;2023-09-19T07:38:40;4.00;;;2.58;;
15216;SDS011;7711;46.634;14.318;2023-09-19T07:41:07;4.15;;;2.70;;
15216;SDS011;7711;46.634;14.318;2023-09-19T07:43:34;8.30;;;2.95;;
15216;SDS011;7711;46.634;14.318;2023-09-19T07:46:04;5.18;;;2.90;;
15216;SDS011;7711;46.634;14.318;2023-09-19T07:48:34;3.38;;;3.00;;
15216;SDS011;7711;46.634;14.318;2023-09-19T07:51:01;3.65;;;2.92;;
15216;SDS011;7711;46.634;14.318;2023-09-19T07:53:29;4.40;;;2.80;;
15216;SDS011;7711;46.634;14.318;2023-09-19T07:56:02;3.28;;;2.67;;
15216;SDS011;7711;46.634;14.318;2023-09-19T07:58:30;3.38;;;2.65;;
15216;SDS011;7711;46.634;14.318;2023-09-19T08:01:01;3.15;;;2.85;;
15216;SDS011;7711;46.634;14.318;2023-09-19T08:03:30;4.22;;;2.85;;
15216;SDS011;7711;46.634;14.318;2023-09-19T08:05:57;3.65;;;2.53;;
15216;SDS011;7711;46.634;14.318;2023-09-19T08:08:24;5.45;;;2.80;;
15216;SDS011;7711;46.634;14.318;2023-09-19T08:10:55;4.68;;;2.80;;
15216;SDS011;7711;46.634;14.318;2023-09-19T08:13:22;3.55;;;2.85;;
15216;SDS011;7711;46.634;14.318;2023-09-19T08:15:49;3.92;;;2.50;;
15216;SDS011;7711;46.634;14.318;2023-09-19T08:18:18;2.90;;;2.35;;
15216;SDS011;7711;46.634;14.318;2023-09-19T08:20:50;3.72;;;2.60;;
15216;SDS011;7711;46.634;14.318;2023-09-19T08:23:17;2.95;;;2.70;;
15216;SDS011;7711;46.634;14.318;2023-09-19T08:25:45;3.80;;;2.78;;
15216;SDS011;7711;46.634;14.318;2023-09-19T08:28:12;4.30;;;2.58;;
15216;SDS011;7711;46.634;14.318;2023-09-19T08:30:44;3.00;;;2.67;;
15216;SDS011;7711;46.634;14.318;2023-09-19T08:33:11;7.40;;;2.83;;
15216;SDS011;7711;46.634;14.318;2023-09-19T08:35:40;12.48;;;4.10;;
15216;SDS011;7711;46.634;14.318;2023-09-19T08:38:10;4.13;;;2.70;;
15216;SDS011;7711;46.634;14.318;2023-09-19T08:40:38;4.15;;;2.63;;
15216;SDS011;7711;46.634;14.318;2023-09-19T08:43:07;3.42;;;2.95;;
15216;SDS011;7711;46.634;14.318;2023-09-19T08:45:34;4.82;;;2.70;;
15216;SDS011;7711;46.634;14.318;2023-09-19T08:48:05;6.10;;;3.75;;
15216;SDS011;7711;46.634;14.318;2023-09-19T08:50:51;5.03;;;2.90;;
15216;SDS011;7711;46.634;14.318;2023-09-19T08:53:26;4.15;;;2.92;;
15216;SDS011;7711;46.634;14.318;2023-09-19T08:55:57;4.60;;;2.83;;
15216;SDS011;7711;46.634;14.318;2023-09-19T08:58:31;4.38;;;2.78;;
15216;SDS011;7711;46.634;14.318;2023-09-19T09:01:00;3.58;;;2.85;;
15216;SDS011;7711;46.634;14.318;2023-09-19T09:03:29;3.40;;;2.75;;
15216;SDS011;7711;46.634;14.318;2023-09-19T09:06:00;3.38;;;2.80;;
15216;SDS011;7711;46.634;14.318;2023-09-19T09:08:29;3.58;;;2.63;;
15216;SDS011;7711;46.634;14.318;2023-09-19T09:10:58;4.40;;;2.80;;
15216;SDS011;7711;46.634;14.318;2023-09-19T09:13:26;3.85;;;2.85;;
15216;SDS011;7711;46.634;14.318;2023-09-19T09:15:53;4.40;;;2.72;;
15216;SDS011;7711;46.634;14.318;2023-09-19T09:18:20;3.83;;;2.80;;
15216;SDS011;7711;46.634;14.318;2023-09-19T09:20:47;4.43;;;2.55;;
15216;SDS011;7711;46.634;14.318;2023-09-19T09:23:14;3.10;;;2.65;;
15216;SDS011;7711;46.634;14.318;2023-09-19T09:25:50;3.03;;;2.70;;
15216;SDS011;7711;46.634;14.318;2023-09-19T09:28:21;3.72;;;2.92;;
15216;SDS011;7711;46.634;14.318;2023-09-19T09:30:49;4.03;;;2.90;;
15216;SDS011;7711;46.634;14.318;2023-09-19T09:33:17;6.25;;;2.90;;
15216;SDS011;7711;46.634;14.318;2023-09-19T09:35:47;4.22;;;2.75;;
15216;SDS011;7711;46.634;14.318;2023-09-19T09:38:17;3.17;;;2.60;;
15216;SDS011;7711;46.634;14.318;2023-09-19T09:40:48;4.70;;;3.08;;
15216;SDS011;7711;46.634;14.318;2023-09-19T09:43:25;5.38;;;3.00;;
15216;SDS011;7711;46.634;14.318;2023-09-19T09:46:06;3.72;;;2.78;;
15216;SDS011;7711;46.634;14.318;2023-09-19T09:48:58;3.63;;;2.70;;
15216;SDS011;7711;46.634;14.318;2023-09-19T09:51:43;3.88;;;2.60;;
15216;SDS011;7711;46.634;14.318;2023-09-19T09:54:14;5.78;;;3.20;;
15216;SDS011;7711;46.634;14.318;2023-09-19T09:56:56;4.45;;;2.70;;
15216;SDS011;7711;46.634;14.318;2023-09-19T10:02:16;3.88;;;2.63;;
15216;SDS011;7711;46.634;14.318;2023-09-19T10:04:49;2.88;;;2.53;;
15216;SDS011;7711;46.634;14.318;2023-09-19T10:07:25;3.40;;;3.10;;
15216;SDS011;7711;46.634;14.318;2023-09-19T10:09:56;4.25;;;2.80;;
15216;SDS011;7711;46.634;14.318;2023-09-19T10:12:36;2.90;;;2.60;;
15216;SDS011;7711;46.634;14.318;2023-09-19T10:15:07;4.30;;;2.75;;
15216;SDS011;7711;46.634;14.318;2023-09-19T10:17:38;3.08;;;2.78;;
15216;SDS011;7711;46.634;14.318;2023-09-19T10:20:11;3.45;;;2.63;;
15216;SDS011;7711;46.634;14.318;2023-09-19T10:22:57;4.57;;;3.05;;
15216;SDS011;7711;46.634;14.318;2023-09-19T10:25:26;4.25;;;2.90;;
15216;SDS011;7711;46.634;14.318;2023-09-19T10:27:56;3.53;;;3.00;;
15216;SDS011;7711;46.634;14.318;2023-09-19T10:30:27;4.00;;;2.80;;
15216;SDS011;7711;46.634;14.318;2023-09-19T10:32:59;2.65;;;2.42;;
15216;SDS011;7711;46.634;14.318;2023-09-19T10:35:27;3.72;;;2.72;;
15216;SDS011;7711;46.634;14.318;2023-09-19T10:37:57;6.85;;;2.72;;
15216;SDS011;7711;46.634;14.318;2023-09-19T10:40:26;3.50;;;2.60;;
15216;SDS011;7711;46.634;14.318;2023-09-19T10:43:02;3.63;;;2.53;;
15216;SDS011;7711;46.634;14.318;2023-09-19T10:45:31;3.67;;;2.42;;
15216;SDS011;7711;46.634;14.318;2023-09-19T10:47:59;6.60;;;2.50;;
15216;SDS011;7711;46.634;14.318;2023-09-19T10:50:29;3.55;;;2.85;;
15216;SDS011;7711;46.634;14.318;2023-09-19T10:53:02;3.42;;;2.45;;
15216;SDS011;7711;46.634;14.318;2023-09-19T10:55:33;2.58;;;2.38;;
15216;SDS011;7711;46.634;14.318;2023-09-19T10:58:03;5.10;;;2.40;;
15216;SDS011;7711;46.634;14.318;2023-09-19T11:00:51;4.18;;;2.47;;
15216;SDS011;7711;46.634;14.318;2023-09-19T11:03:21;3.25;;;2.55;;
15216;SDS011;7711;46.634;14.318;2023-09-19T11:06:01;3.95;;;2.40;;
15216;SDS011;7711;46.634;14.318;2023-09-19T11:08:57;3.30;;;2.15;;
15216;SDS011;7711;46.634;14.318;2023-09-19T11:11:47;3.95;;;2.58;;
15216;SDS011;7711;46.634;14.318;2023-09-19T11:14:30;4.43;;;2.47;;
15216;SDS011;7711;46.634;14.318;2023-09-19T11:20:24;2.50;;;2.20;;
15216;SDS011;7711;46.634;14.318;2023-09-19T11:23:22;2.50;;;2.17;;
15216;SDS011;7711;46.634;14.318;2023-09-19T11:25:51;2.95;;;2.00;;
15216;SDS011;7711;46.634;14.318;2023-09-19T11:28:31;4.55;;;2.10;;
15216;SDS011;7711;46.634;14.318;2023-09-19T11:34:41;2.50;;;2.20;;
15216;SDS011;7711;46.634;14.318;2023-09-19T11:40:36;5.15;;;2.22;;
15216;SDS011;7711;46.634;14.318;2023-09-19T11:46:01;2.60;;;2.28;;
15216;SDS011;7711;46.634;14.318;2023-09-19T11:48:31;2.38;;;2.17;;
15216;SDS011;7711;46.634;14.318;2023-09-19T11:51:01;2.40;;;2.10;;
15216;SDS011;7711;46.634;14.318;2023-09-19T11:53:40;4.18;;;2.35;;
15216;SDS011;7711;46.634;14.318;2023-09-19T11:56:09;2.30;;;2.00;;
15216;SDS011;7711;46.634;14.318;2023-09-19T11:58:37;4.03;;;2.15;;
15216;SDS011;7711;46.634;14.318;2023-09-19T12:01:05;2.90;;;2.50;;
15216;SDS011;7711;46.634;14.318;2023-09-19T12:03:38;3.78;;;2.15;;
15216;SDS011;7711;46.634;14.318;2023-09-19T12:06:12;2.97;;;2.30;;
15216;SDS011;7711;46.634;14.318;2023-09-19T12:08:42;4.13;;;2.20;;
15216;SDS011;7711;46.634;14.318;2023-09-19T12:11:12;3.17;;;2.42;;
15216;SDS011;7711;46.634;14.318;2023-09-19T12:13:41;2.85;;;2.30;;
15216;SDS011;7711;46.634;14.318;2023-09-19T12:16:11;3.42;;;2.25;;
15216;SDS011;7711;46.634;14.318;2023-09-19T12:18:41;2.40;;;2.17;;
15216;SDS011;7711;46.634;14.318;2023-09-19T12:21:22;2.45;;;2.20;;
15216;SDS011;7711;46.634;14.318;2023-09-19T12:24:06;6.13;;;2.13;;
15216;SDS011;7711;46.634;14.318;2023-09-19T12:26:39;2.20;;;2.00;;
15216;SDS011;7711;46.634;14.318;2023-09-19T12:29:17;3.78;;;2.40;;
15216;SDS011;7711;46.634;14.318;2023-09-19T12:31:51;3.55;;;2.60;;
15216;SDS011;7711;46.634;14.318;2023-09-19T12:34:23;2.97;;;2.20;;
15216;SDS011;7711;46.634;14.318;2023-09-19T12:37:07;2.78;;;2.00;;
15216;SDS011;7711;46.634;14.318;2023-09-19T12:39:41;2.35;;;2.10;;
15216;SDS011;7711;46.634;14.318;2023-09-19T12:42:09;2.75;;;2.10;;
15216;SDS011;7711;46.634;14.318;2023-09-19T12:44:40;2.80;;;2.10;;
15216;SDS011;7711;46.634;14.318;2023-09-19T12:47:09;5.47;;;2.17;;
15216;SDS011;7711;46.634;14.318;2023-09-19T12:52:41;3.22;;;2.30;;
15216;SDS011;7711;46.634;14.318;2023-09-19T12:55:19;2.50;;;2.20;;
15216;SDS011;7711;46.634;14.318;2023-09-19T12:58:07;2.17;;;1.92;;
15216;SDS011;7711;46.634;14.318;2023-09-19T13:00:36;2.50;;;1.98;;
15216;SDS011;7711;46.634;14.318;2023-09-19T13:05:53;2.13;;;1.90;;
15216;SDS011;7711;46.634;14.318;2023-09-19T13:08:27;2.47;;;1.90;;
15216;SDS011;7711;46.634;14.318;2023-09-19T13:11:07;2.40;;;1.98;;
15216;SDS011;7711;46.634;14.318;2023-09-19T13:13:38;2.17;;;2.00;;
15216;SDS011;7711;46.634;14.318;2023-09-19T13:16:06;2.42;;;2.00;;
15216;SDS011;7711;46.634;14.318;2023-09-19T13:18:44;2.17;;;1.98;;
15216;SDS011;7711;46.634;14.318;2023-09-19T13:21:12;2.25;;;2.05;;
15216;SDS011;7711;46.634;14.318;2023-09-19T13:23:53;2.40;;;2.17;;
15216;SDS011;7711;46.634;14.318;2023-09-19T13:26:24;3.35;;;2.10;;
15216;SDS011;7711;46.634;14.318;2023-09-19T13:28:51;2.35;;;2.10;;
15216;SDS011;7711;46.634;14.318;2023-09-19T13:31:19;2.03;;;1.90;;
15216;SDS011;7711;46.634;14.318;2023-09-19T13:33:47;3.20;;;2.10;;
15216;SDS011;7711;46.634;14.318;2023-09-19T13:36:15;2.35;;;2.10;;
15216;SDS011;7711;46.634;14.318;2023-09-19T13:38:44;3.92;;;2.20;;
15216;SDS011;7711;46.634;14.318;2023-09-19T13:41:15;2.20;;;2.00;;
15216;SDS011;7711;46.634;14.318;2023-09-19T13:43:42;2.00;;;1.80;;
15216;SDS011;7711;46.634;14.318;2023-09-19T13:46:14;2.88;;;2.30;;
15216;SDS011;7711;46.634;14.318;2023-09-19T13:48:41;2.42;;;1.90;;
15216;SDS011;7711;46.634;14.318;2023-09-19T13:51:08;2.25;;;1.92;;
15216;SDS011;7711;46.634;14.318;2023-09-19T13:53:35;3.92;;;2.33;;
15216;SDS011;7711;46.634;14.318;2023-09-19T13:56:03;2.28;;;2.08;;
15216;SDS011;7711;46.634;14.318;2023-09-19T13:58:31;4.13;;;2.20;;
15216;SDS011;7711;46.634;14.318;2023-09-19T14:00:58;2.42;;;2.22;;
15216;SDS011;7711;46.634;14.318;2023-09-19T14:03:26;2.10;;;1.90;;
15216;SDS011;7711;46.634;14.318;2023-09-19T14:05:54;3.88;;;2.03;;
15216;SDS011;7711;46.634;14.318;2023-09-19T14:08:21;2.40;;;2.20;;
15216;SDS011;7711;46.634;14.318;2023-09-19T14:10:49;2.28;;;2.08;;
15216;SDS011;7711;46.634;14.318;2023-09-19T14:13:16;2.63;;;2.00;;
15216;SDS011;7711;46.634;14.318;2023-09-19T14:15:47;2.30;;;2.10;;
15216;SDS011;7711;46.634;14.318;2023-09-19T14:18:14;2.30;;;2.05;;
15216;SDS011;7711;46.634;14.318;2023-09-19T14:20:41;2.80;;;2.08;;
15216;SDS011;7711;46.634;14.318;2023-09-19T14:23:09;2.00;;;1.90;;
15216;SDS011;7711;46.634;14.318;2023-09-19T14:25:36;2.67;;;1.98;;
15216;SDS011;7711;46.634;14.318;2023-09-19T14:28:04;3.17;;;2.03;;
15216;SDS011;7711;46.634;14.318;2023-09-19T14:30:33;2.15;;;1.92;;
15216;SDS011;7711;46.634;14.318;2023-09-19T14:33:01;3.47;;;2.10;;
15216;SDS011;7711;46.634;14.318;2023-09-19T14:35:29;3.65;;;2.15;;
15216;SDS011;7711;46.634;14.318;2023-09-19T14:37:56;2.88;;;2.30;;
15216;SDS011;7711;46.634;14.318;2023-09-19T14:40:22;3.33;;;2.20;;
15216;SDS011;7711;46.634;14.318;2023-09-19T14:42:50;2.75;;;2.15;;
15216;SDS011;7711;46.634;14.318;2023-09-19T14:45:18;2.20;;;2.00;;
15216;SDS011;7711;46.634;14.318;2023-09-19T14:47:45;1.85;;;1.75;;
15216;SDS011;7711;46.634;14.318;2023-09-19T14:50:14;2.33;;;2.10;;
15216;SDS011;7711;46.634;14.318;2023-09-19T14:52:41;2.67;;;1.92;;
15216;SDS011;7711;46.634;14.318;2023-09-19T14:55:09;2.20;;;2.00;;
15216;SDS011;7711;46.634;14.318;2023-09-19T14:57:39;2.25;;;2.08;;
15216;SDS011;7711;46.634;14.318;2023-09-19T15:00:08;2.30;;;2.10;;
15216;SDS011;7711;46.634;14.318;2023-09-19T15:02:37;1.95;;;1.85;;
15216;SDS011;7711;46.634;14.318;2023-09-19T15:05:06;3.45;;;2.00;;
15216;SDS011;7711;46.634;14.318;2023-09-19T15:07:36;2.30;;;2.10;;
15216;SDS011;7711;46.634;14.318;2023-09-19T15:10:05;1.92;;;1.83;;
15216;SDS011;7711;46.634;14.318;2023-09-19T15:12:35;2.67;;;2.10;;
15216;SDS011;7711;46.634;14.318;2023-09-19T15:15:03;3.63;;;2.00;;
15216;SDS011;7711;46.634;14.318;2023-09-19T15:17:33;2.20;;;2.00;;
15216;SDS011;7711;46.634;14.318;2023-09-19T15:20:02;3.17;;;2.10;;
15216;SDS011;7711;46.634;14.318;2023-09-19T15:22:32;2.20;;;2.00;;
15216;SDS011;7711;46.634;14.318;2023-09-19T15:25:03;3.00;;;2.30;;